sensor_id;sensor_type;location;lat;lon;timestamp;temperature;humidity
19206;DHT22;59358;52.134;5.596;2023-12-20T00:02:04;6.30;99.90
19206;DHT22;59358;52.134;5.596;2023-12-20T00:04:31;6.20;99.90
19206;DHT22;59358;52.134;5.596;2023-12-20T00:06:58;6.20;99.90
19206;DHT22;59358;52.134;5.596;2023-12-20T00:09:25;6.10;99.90
19206;DHT22;59358;52.134;5.596;2023-12-20T00:11:51;6.10;99.90
19206;DHT22;59358;52.134;5.596;2023-12-20T00:14:19;6.10;99.90
19206;DHT22;59358;52.134;5.596;2023-12-20T00:16:46;6.10;99.90
19206;DHT22;59358;52.134;5.596;2023-12-20T00:19:13;6.10;99.90
19206;DHT22;59358;52.134;5.596;2023-12-20T00:21:40;6.00;99.90
19206;DHT22;59358;52.134;5.596;2023-12-20T00:24:07;6.00;99.90
19206;DHT22;59358;52.134;5.596;2023-12-20T00:26:34;6.00;99.90
19206;DHT22;59358;52.134;5.596;2023-12-20T00:29:01;6.00;99.90
19206;DHT22;59358;52.134;5.596;2023-12-20T00:31:29;6.00;99.90
19206;DHT22;59358;52.134;5.596;2023-12-20T00:33:56;6.00;99.90
19206;DHT22;59358;52.134;5.596;2023-12-20T00:36:22;6.00;99.90
19206;DHT22;59358;52.134;5.596;2023-12-20T00:38:49;6.00;99.90
19206;DHT22;59358;52.134;5.596;2023-12-20T00:41:16;5.90;99.90
19206;DHT22;59358;52.134;5.596;2023-12-20T00:43:43;5.90;99.90
19206;DHT22;59358;52.134;5.596;2023-12-20T00:46:10;5.90;99.90
19206;DHT22;59358;52.134;5.596;2023-12-20T00:48:38;5.90;99.90
19206;DHT22;59358;52.134;5.596;2023-12-20T00:51:07;5.90;99.90
19206;DHT22;59358;52.134;5.596;2023-12-20T00:53:34;5.80;99.90
19206;DHT22;59358;52.134;5.596;2023-12-20T00:56:01;5.80;99.90
19206;DHT22;59358;52.134;5.596;2023-12-20T00:58:28;5.80;99.90
19206;DHT22;59358;52.134;5.596;2023-12-20T01:00:55;5.80;99.90
19206;DHT22;59358;52.134;5.596;2023-12-20T01:03:21;5.80;99.90
19206;DHT22;59358;52.134;5.596;2023-12-20T01:05:50;5.80;99.90
19206;DHT22;59358;52.134;5.596;2023-12-20T01:08:17;5.70;99.90
19206;DHT22;59358;52.134;5.596;2023-12-20T01:10:43;5.70;99.90
19206;DHT22;59358;52.134;5.596;2023-12-20T01:13:12;5.70;99.90
19206;DHT22;59358;52.134;5.596;2023-12-20T01:15:38;5.70;99.90
19206;DHT22;59358;52.134;5.596;2023-12-20T01:18:05;5.60;99.90
19206;DHT22;59358;52.134;5.596;2023-12-20T01:20:32;5.60;99.90
19206;DHT22;59358;52.134;5.596;2023-12-20T01:23:00;5.60;99.90
19206;DHT22;59358;52.134;5.596;2023-12-20T01:25:27;5.60;99.90
19206;DHT22;59358;52.134;5.596;2023-12-20T01:27:54;5.60;99.90
19206;DHT22;59358;52.134;5.596;2023-12-20T01:30:20;5.60;99.90
19206;DHT22;59358;52.134;5.596;2023-12-20T01:32:47;5.60;99.90
19206;DHT22;59358;52.134;5.596;2023-12-20T01:35:14;5.60;99.90
19206;DHT22;59358;52.134;5.596;2023-12-20T01:37:41;5.60;99.90
19206;DHT22;59358;52.134;5.596;2023-12-20T01:40:10;5.60;99.90
19206;DHT22;59358;52.134;5.596;2023-12-20T01:42:37;5.70;99.90
19206;DHT22;59358;52.134;5.596;2023-12-20T01:45:04;5.70;99.90
19206;DHT22;59358;52.134;5.596;2023-12-20T01:47:31;5.70;99.90
19206;DHT22;59358;52.134;5.596;2023-12-20T01:49:58;5.70;99.90
19206;DHT22;59358;52.134;5.596;2023-12-20T01:52:25;5.70;99.90
19206;DHT22;59358;52.134;5.596;2023-12-20T01:54:53;5.70;99.90
19206;DHT22;59358;52.134;5.596;2023-12-20T01:57:27;5.80;99.90
19206;DHT22;59358;52.134;5.596;2023-12-20T01:59:55;5.80;99.90
19206;DHT22;59358;52.134;5.596;2023-12-20T02:02:22;5.80;99.90
19206;DHT22;59358;52.134;5.596;2023-12-20T02:04:49;5.80;99.90
19206;DHT22;59358;52.134;5.596;2023-12-20T02:07:17;5.80;99.90
19206;DHT22;59358;52.134;5.596;2023-12-20T02:09:44;5.80;99.90
19206;DHT22;59358;52.134;5.596;2023-12-20T02:12:11;5.80;99.90
19206;DHT22;59358;52.134;5.596;2023-12-20T02:14:39;5.80;99.90
19206;DHT22;59358;52.134;5.596;2023-12-20T02:17:06;5.80;99.90
19206;DHT22;59358;52.134;5.596;2023-12-20T02:19:33;5.80;99.90
19206;DHT22;59358;52.134;5.596;2023-12-20T02:22:08;5.80;99.90
19206;DHT22;59358;52.134;5.596;2023-12-20T02:24:35;5.80;99.90
19206;DHT22;59358;52.134;5.596;2023-12-20T02:27:02;5.90;99.90
19206;DHT22;59358;52.134;5.596;2023-12-20T02:29:29;5.90;99.90
19206;DHT22;59358;52.134;5.596;2023-12-20T02:31:57;5.90;99.90
19206;DHT22;59358;52.134;5.596;2023-12-20T02:34:24;5.90;99.90
19206;DHT22;59358;52.134;5.596;2023-12-20T02:36:51;6.00;99.90
19206;DHT22;59358;52.134;5.596;2023-12-20T02:39:19;6.10;99.90
19206;DHT22;59358;52.134;5.596;2023-12-20T02:41:46;6.10;99.90
19206;DHT22;59358;52.134;5.596;2023-12-20T02:44:13;6.10;99.90
19206;DHT22;59358;52.134;5.596;2023-12-20T02:46:40;6.00;99.90
19206;DHT22;59358;52.134;5.596;2023-12-20T02:49:07;6.00;99.90
19206;DHT22;59358;52.134;5.596;2023-12-20T02:51:34;5.90;99.90
19206;DHT22;59358;52.134;5.596;2023-12-20T02:54:03;6.00;99.90
19206;DHT22;59358;52.134;5.596;2023-12-20T02:56:31;6.00;99.90
19206;DHT22;59358;52.134;5.596;2023-12-20T02:58:58;5.90;99.90
19206;DHT22;59358;52.134;5.596;2023-12-20T03:01:25;6.00;99.90
19206;DHT22;59358;52.134;5.596;2023-12-20T03:03:52;6.00;99.90
19206;DHT22;59358;52.134;5.596;2023-12-20T03:06:18;6.00;99.90
19206;DHT22;59358;52.134;5.596;2023-12-20T03:08:46;6.00;99.90
19206;DHT22;59358;52.134;5.596;2023-12-20T03:11:13;6.00;99.90
19206;DHT22;59358;52.134;5.596;2023-12-20T03:13:41;6.00;99.90
19206;DHT22;59358;52.134;5.596;2023-12-20T03:16:11;5.90;99.90
19206;DHT22;59358;52.134;5.596;2023-12-20T03:18:38;6.00;99.90
19206;DHT22;59358;52.134;5.596;2023-12-20T03:21:05;6.00;99.90
19206;DHT22;59358;52.134;5.596;2023-12-20T03:23:32;6.00;99.90
19206;DHT22;59358;52.134;5.596;2023-12-20T03:25:59;6.00;99.90
19206;DHT22;59358;52.134;5.596;2023-12-20T03:28:26;6.10;99.90
19206;DHT22;59358;52.134;5.596;2023-12-20T03:30:54;6.20;99.90
19206;DHT22;59358;52.134;5.596;2023-12-20T03:33:21;6.20;99.90
19206;DHT22;59358;52.134;5.596;2023-12-20T03:35:48;6.20;99.90
19206;DHT22;59358;52.134;5.596;2023-12-20T03:38:14;6.10;99.90
19206;DHT22;59358;52.134;5.596;2023-12-20T03:40:41;6.10;99.90
19206;DHT22;59358;52.134;5.596;2023-12-20T03:43:08;6.00;99.90
19206;DHT22;59358;52.134;5.596;2023-12-20T03:45:35;6.10;99.90
19206;DHT22;59358;52.134;5.596;2023-12-20T03:48:04;6.20;99.90
19206;DHT22;59358;52.134;5.596;2023-12-20T03:50:31;6.20;99.90
19206;DHT22;59358;52.134;5.596;2023-12-20T03:52:57;6.20;99.90
19206;DHT22;59358;52.134;5.596;2023-12-20T03:55:24;6.20;99.90
19206;DHT22;59358;52.134;5.596;2023-12-20T03:57:51;6.30;99.90
19206;DHT22;59358;52.134;5.596;2023-12-20T04:00:18;6.30;99.90
19206;DHT22;59358;52.134;5.596;2023-12-20T04:02:45;6.20;99.90
19206;DHT22;59358;52.134;5.596;2023-12-20T04:05:13;6.20;99.90
19206;DHT22;59358;52.134;5.596;2023-12-20T04:07:40;6.20;99.90
19206;DHT22;59358;52.134;5.596;2023-12-20T04:10:07;6.30;99.90
19206;DHT22;59358;52.134;5.596;2023-12-20T04:12:34;6.30;99.90
19206;DHT22;59358;52.134;5.596;2023-12-20T04:15:01;6.50;99.90
19206;DHT22;59358;52.134;5.596;2023-12-20T04:17:34;6.60;99.90
19206;DHT22;59358;52.134;5.596;2023-12-20T04:20:01;6.70;99.90
19206;DHT22;59358;52.134;5.596;2023-12-20T04:22:29;6.70;99.90
19206;DHT22;59358;52.134;5.596;2023-12-20T04:24:56;6.70;99.90
19206;DHT22;59358;52.134;5.596;2023-12-20T04:27:22;6.60;99.90
19206;DHT22;59358;52.134;5.596;2023-12-20T04:29:49;6.70;99.90
19206;DHT22;59358;52.134;5.596;2023-12-20T04:32:16;6.70;99.90
19206;DHT22;59358;52.134;5.596;2023-12-20T04:34:43;6.70;99.90
19206;DHT22;59358;52.134;5.596;2023-12-20T04:37:09;6.70;99.90
19206;DHT22;59358;52.134;5.596;2023-12-20T04:39:37;6.80;99.90
19206;DHT22;59358;52.134;5.596;2023-12-20T04:42:04;6.90;99.90
19206;DHT22;59358;52.134;5.596;2023-12-20T04:44:31;6.90;99.90
19206;DHT22;59358;52.134;5.596;2023-12-20T04:46:58;7.00;99.90
19206;DHT22;59358;52.134;5.596;2023-12-20T04:49:25;7.00;99.90
19206;DHT22;59358;52.134;5.596;2023-12-20T04:51:52;7.00;99.90
19206;DHT22;59358;52.134;5.596;2023-12-20T04:54:19;7.00;99.90
19206;DHT22;59358;52.134;5.596;2023-12-20T04:56:47;7.10;99.90
19206;DHT22;59358;52.134;5.596;2023-12-20T04:59:14;7.10;99.90
19206;DHT22;59358;52.134;5.596;2023-12-20T05:01:41;7.10;99.90
19206;DHT22;59358;52.134;5.596;2023-12-20T05:04:07;7.10;99.90
19206;DHT22;59358;52.134;5.596;2023-12-20T05:06:34;7.20;99.90
19206;DHT22;59358;52.134;5.596;2023-12-20T05:09:01;7.20;99.90
19206;DHT22;59358;52.134;5.596;2023-12-20T05:11:28;7.20;99.90
19206;DHT22;59358;52.134;5.596;2023-12-20T05:13:56;7.30;99.90
19206;DHT22;59358;52.134;5.596;2023-12-20T05:16:23;7.30;99.90
19206;DHT22;59358;52.134;5.596;2023-12-20T05:18:50;7.30;99.90
19206;DHT22;59358;52.134;5.596;2023-12-20T05:21:17;7.30;99.90
19206;DHT22;59358;52.134;5.596;2023-12-20T05:23:44;7.40;99.90
19206;DHT22;59358;52.134;5.596;2023-12-20T05:26:11;7.40;99.90
19206;DHT22;59358;52.134;5.596;2023-12-20T05:28:38;7.40;99.90
19206;DHT22;59358;52.134;5.596;2023-12-20T05:31:06;7.40;99.90
19206;DHT22;59358;52.134;5.596;2023-12-20T05:33:33;7.40;99.90
19206;DHT22;59358;52.134;5.596;2023-12-20T05:36:00;7.30;99.90
19206;DHT22;59358;52.134;5.596;2023-12-20T05:38:27;7.50;99.90
19206;DHT22;59358;52.134;5.596;2023-12-20T05:40:53;7.40;99.90
19206;DHT22;59358;52.134;5.596;2023-12-20T05:43:20;7.40;99.90
19206;DHT22;59358;52.134;5.596;2023-12-20T05:45:47;7.40;99.90
19206;DHT22;59358;52.134;5.596;2023-12-20T05:48:15;7.50;99.90
19206;DHT22;59358;52.134;5.596;2023-12-20T05:50:42;7.50;99.90
19206;DHT22;59358;52.134;5.596;2023-12-20T05:53:08;7.50;99.90
19206;DHT22;59358;52.134;5.596;2023-12-20T05:55:35;7.50;99.90
19206;DHT22;59358;52.134;5.596;2023-12-20T05:58:02;7.50;99.90
19206;DHT22;59358;52.134;5.596;2023-12-20T06:00:29;7.50;99.90
19206;DHT22;59358;52.134;5.596;2023-12-20T06:02:56;7.50;99.90
19206;DHT22;59358;52.134;5.596;2023-12-20T06:05:24;7.50;99.90
19206;DHT22;59358;52.134;5.596;2023-12-20T06:07:50;7.50;99.90
19206;DHT22;59358;52.134;5.596;2023-12-20T06:10:18;7.50;99.90
19206;DHT22;59358;52.134;5.596;2023-12-20T06:12:44;7.50;99.90
19206;DHT22;59358;52.134;5.596;2023-12-20T06:15:12;7.50;99.90
19206;DHT22;59358;52.134;5.596;2023-12-20T06:17:39;7.50;99.90
19206;DHT22;59358;52.134;5.596;2023-12-20T06:20:07;7.50;99.90
19206;DHT22;59358;52.134;5.596;2023-12-20T06:22:35;7.50;99.90
19206;DHT22;59358;52.134;5.596;2023-12-20T06:25:03;7.50;99.90
19206;DHT22;59358;52.134;5.596;2023-12-20T06:27:29;7.50;99.90
19206;DHT22;59358;52.134;5.596;2023-12-20T06:29:58;7.50;99.90
19206;DHT22;59358;52.134;5.596;2023-12-20T06:32:24;7.50;99.90
19206;DHT22;59358;52.134;5.596;2023-12-20T06:34:51;7.50;99.90
19206;DHT22;59358;52.134;5.596;2023-12-20T06:37:18;7.60;99.90
19206;DHT22;59358;52.134;5.596;2023-12-20T06:39:46;7.60;99.90
19206;DHT22;59358;52.134;5.596;2023-12-20T06:42:13;7.60;99.90
19206;DHT22;59358;52.134;5.596;2023-12-20T06:44:39;7.60;99.90
19206;DHT22;59358;52.134;5.596;2023-12-20T06:47:06;7.60;99.90
19206;DHT22;59358;52.134;5.596;2023-12-20T06:49:33;7.60;99.90
19206;DHT22;59358;52.134;5.596;2023-12-20T06:52:00;7.60;99.90
19206;DHT22;59358;52.134;5.596;2023-12-20T06:54:27;7.60;99.90
19206;DHT22;59358;52.134;5.596;2023-12-20T06:56:55;7.60;99.90
19206;DHT22;59358;52.134;5.596;2023-12-20T06:59:22;7.60;99.90
19206;DHT22;59358;52.134;5.596;2023-12-20T07:01:49;7.60;99.90
19206;DHT22;59358;52.134;5.596;2023-12-20T07:04:16;7.60;99.90
19206;DHT22;59358;52.134;5.596;2023-12-20T07:06:45;7.60;99.90
19206;DHT22;59358;52.134;5.596;2023-12-20T07:09:13;7.60;99.90
19206;DHT22;59358;52.134;5.596;2023-12-20T07:11:39;7.60;99.90
19206;DHT22;59358;52.134;5.596;2023-12-20T07:14:08;7.60;99.90
19206;DHT22;59358;52.134;5.596;2023-12-20T07:16:35;7.60;99.90
19206;DHT22;59358;52.134;5.596;2023-12-20T07:19:01;7.60;99.90
19206;DHT22;59358;52.134;5.596;2023-12-20T07:21:28;7.70;99.90
19206;DHT22;59358;52.134;5.596;2023-12-20T07:23:55;7.70;99.90
19206;DHT22;59358;52.134;5.596;2023-12-20T07:26:23;7.60;99.90
19206;DHT22;59358;52.134;5.596;2023-12-20T07:28:50;7.60;99.90
19206;DHT22;59358;52.134;5.596;2023-12-20T07:31:18;7.70;99.90
19206;DHT22;59358;52.134;5.596;2023-12-20T07:33:45;7.60;99.90
19206;DHT22;59358;52.134;5.596;2023-12-20T07:36:12;7.60;99.90
19206;DHT22;59358;52.134;5.596;2023-12-20T07:38:38;7.70;99.90
19206;DHT22;59358;52.134;5.596;2023-12-20T07:41:09;7.70;99.90
19206;DHT22;59358;52.134;5.596;2023-12-20T07:43:36;7.70;99.90
19206;DHT22;59358;52.134;5.596;2023-12-20T07:46:06;7.70;99.90
19206;DHT22;59358;52.134;5.596;2023-12-20T07:48:34;7.70;99.90
19206;DHT22;59358;52.134;5.596;2023-12-20T07:51:02;7.80;99.90
19206;DHT22;59358;52.134;5.596;2023-12-20T07:53:29;7.80;99.90
19206;DHT22;59358;52.134;5.596;2023-12-20T07:55:56;7.80;99.90
19206;DHT22;59358;52.134;5.596;2023-12-20T07:58:22;7.80;99.90
19206;DHT22;59358;52.134;5.596;2023-12-20T08:00:49;7.90;99.90
19206;DHT22;59358;52.134;5.596;2023-12-20T08:03:16;7.90;99.90
19206;DHT22;59358;52.134;5.596;2023-12-20T08:05:44;7.90;99.90
19206;DHT22;59358;52.134;5.596;2023-12-20T08:08:11;7.90;99.90
19206;DHT22;59358;52.134;5.596;2023-12-20T08:10:37;7.90;99.90
19206;DHT22;59358;52.134;5.596;2023-12-20T08:13:04;7.90;99.90
19206;DHT22;59358;52.134;5.596;2023-12-20T08:15:32;7.90;99.90
19206;DHT22;59358;52.134;5.596;2023-12-20T08:17:59;7.90;99.90
19206;DHT22;59358;52.134;5.596;2023-12-20T08:20:25;8.00;99.90
19206;DHT22;59358;52.134;5.596;2023-12-20T08:22:54;8.00;99.90
19206;DHT22;59358;52.134;5.596;2023-12-20T08:25:20;8.00;99.90
19206;DHT22;59358;52.134;5.596;2023-12-20T08:27:47;7.90;99.90
19206;DHT22;59358;52.134;5.596;2023-12-20T08:30:14;8.00;99.90
19206;DHT22;59358;52.134;5.596;2023-12-20T08:32:42;8.00;99.90
19206;DHT22;59358;52.134;5.596;2023-12-20T08:35:09;8.00;99.90
19206;DHT22;59358;52.134;5.596;2023-12-20T08:37:36;8.00;99.90
19206;DHT22;59358;52.134;5.596;2023-12-20T08:40:06;8.00;99.90
19206;DHT22;59358;52.134;5.596;2023-12-20T08:42:32;8.00;99.90
19206;DHT22;59358;52.134;5.596;2023-12-20T08:44:59;8.00;99.90
19206;DHT22;59358;52.134;5.596;2023-12-20T08:47:26;8.00;99.90
19206;DHT22;59358;52.134;5.596;2023-12-20T08:49:53;8.10;99.90
19206;DHT22;59358;52.134;5.596;2023-12-20T08:52:22;8.00;99.90
19206;DHT22;59358;52.134;5.596;2023-12-20T08:54:48;8.10;99.90
19206;DHT22;59358;52.134;5.596;2023-12-20T08:57:19;8.10;99.90
19206;DHT22;59358;52.134;5.596;2023-12-20T08:59:46;8.10;99.90
19206;DHT22;59358;52.134;5.596;2023-12-20T09:02:14;8.10;99.90
19206;DHT22;59358;52.134;5.596;2023-12-20T09:04:40;8.10;99.90
19206;DHT22;59358;52.134;5.596;2023-12-20T09:07:20;8.00;99.90
19206;DHT22;59358;52.134;5.596;2023-12-20T09:09:47;8.00;99.90
19206;DHT22;59358;52.134;5.596;2023-12-20T09:12:13;8.00;99.90
19206;DHT22;59358;52.134;5.596;2023-12-20T09:14:41;8.00;99.90
19206;DHT22;59358;52.134;5.596;2023-12-20T09:17:08;7.90;99.90
19206;DHT22;59358;52.134;5.596;2023-12-20T09:19:37;7.90;99.90
19206;DHT22;59358;52.134;5.596;2023-12-20T09:22:03;7.90;99.90
19206;DHT22;59358;52.134;5.596;2023-12-20T09:24:30;7.90;99.90
19206;DHT22;59358;52.134;5.596;2023-12-20T09:26:57;7.90;99.90
19206;DHT22;59358;52.134;5.596;2023-12-20T09:29:24;7.90;99.90
19206;DHT22;59358;52.134;5.596;2023-12-20T09:31:52;7.80;99.90
19206;DHT22;59358;52.134;5.596;2023-12-20T09:34:19;7.80;99.90
19206;DHT22;59358;52.134;5.596;2023-12-20T09:36:46;7.80;99.90
19206;DHT22;59358;52.134;5.596;2023-12-20T09:39:13;7.90;99.90
19206;DHT22;59358;52.134;5.596;2023-12-20T09:41:43;7.90;99.90
19206;DHT22;59358;52.134;5.596;2023-12-20T09:44:13;7.80;99.90
19206;DHT22;59358;52.134;5.596;2023-12-20T09:46:43;7.90;99.90
19206;DHT22;59358;52.134;5.596;2023-12-20T09:49:12;7.90;99.90
19206;DHT22;59358;52.134;5.596;2023-12-20T09:51:40;8.00;99.90
19206;DHT22;59358;52.134;5.596;2023-12-20T09:54:08;8.10;99.90
19206;DHT22;59358;52.134;5.596;2023-12-20T09:56:37;8.20;99.90
19206;DHT22;59358;52.134;5.596;2023-12-20T09:59:04;8.30;99.90
19206;DHT22;59358;52.134;5.596;2023-12-20T10:01:31;8.30;99.90
19206;DHT22;59358;52.134;5.596;2023-12-20T10:03:59;8.30;99.90
19206;DHT22;59358;52.134;5.596;2023-12-20T10:06:28;8.30;99.90
19206;DHT22;59358;52.134;5.596;2023-12-20T10:08:55;8.40;99.90
19206;DHT22;59358;52.134;5.596;2023-12-20T10:11:22;8.50;99.90
19206;DHT22;59358;52.134;5.596;2023-12-20T10:13:49;8.60;99.90
19206;DHT22;59358;52.134;5.596;2023-12-20T10:16:15;8.60;99.90
19206;DHT22;59358;52.134;5.596;2023-12-20T10:18:42;8.60;99.90
19206;DHT22;59358;52.134;5.596;2023-12-20T10:21:09;8.70;99.90
19206;DHT22;59358;52.134;5.596;2023-12-20T10:23:38;8.70;99.90
19206;DHT22;59358;52.134;5.596;2023-12-20T10:26:06;8.80;99.90
19206;DHT22;59358;52.134;5.596;2023-12-20T10:28:33;8.80;99.90
19206;DHT22;59358;52.134;5.596;2023-12-20T10:31:00;8.90;99.90
19206;DHT22;59358;52.134;5.596;2023-12-20T10:33:28;8.90;99.90
19206;DHT22;59358;52.134;5.596;2023-12-20T10:35:55;9.00;99.90
19206;DHT22;59358;52.134;5.596;2023-12-20T10:38:22;9.00;99.90
19206;DHT22;59358;52.134;5.596;2023-12-20T10:40:53;9.00;99.90
19206;DHT22;59358;52.134;5.596;2023-12-20T10:43:21;9.00;99.90
19206;DHT22;59358;52.134;5.596;2023-12-20T10:45:49;9.00;99.90
19206;DHT22;59358;52.134;5.596;2023-12-20T10:48:16;9.00;99.90
19206;DHT22;59358;52.134;5.596;2023-12-20T10:50:43;9.00;99.90
19206;DHT22;59358;52.134;5.596;2023-12-20T10:53:11;9.10;99.90
19206;DHT22;59358;52.134;5.596;2023-12-20T10:55:39;9.10;99.90
19206;DHT22;59358;52.134;5.596;2023-12-20T10:58:09;9.30;99.90
19206;DHT22;59358;52.134;5.596;2023-12-20T11:00:39;9.30;99.90
19206;DHT22;59358;52.134;5.596;2023-12-20T11:03:09;9.40;99.90
19206;DHT22;59358;52.134;5.596;2023-12-20T11:05:40;9.50;99.90
19206;DHT22;59358;52.134;5.596;2023-12-20T11:08:13;9.60;99.90
19206;DHT22;59358;52.134;5.596;2023-12-20T11:10:49;9.70;99.90
19206;DHT22;59358;52.134;5.596;2023-12-20T11:13:23;9.70;99.90
19206;DHT22;59358;52.134;5.596;2023-12-20T11:15:53;9.70;99.90
19206;DHT22;59358;52.134;5.596;2023-12-20T11:18:28;9.50;99.90
19206;DHT22;59358;52.134;5.596;2023-12-20T11:20:55;9.60;99.90
19206;DHT22;59358;52.134;5.596;2023-12-20T11:23:26;9.60;99.90
19206;DHT22;59358;52.134;5.596;2023-12-20T11:25:55;9.70;99.90
19206;DHT22;59358;52.134;5.596;2023-12-20T11:28:26;9.80;99.90
19206;DHT22;59358;52.134;5.596;2023-12-20T11:30:54;9.80;99.90
19206;DHT22;59358;52.134;5.596;2023-12-20T11:33:22;9.90;99.90
19206;DHT22;59358;52.134;5.596;2023-12-20T11:35:49;9.90;99.90
19206;DHT22;59358;52.134;5.596;2023-12-20T11:38:16;9.90;99.90
19206;DHT22;59358;52.134;5.596;2023-12-20T11:40:43;9.90;99.90
19206;DHT22;59358;52.134;5.596;2023-12-20T11:43:10;10.10;99.90
19206;DHT22;59358;52.134;5.596;2023-12-20T11:45:49;9.90;99.90
19206;DHT22;59358;52.134;5.596;2023-12-20T11:48:17;9.90;99.90
19206;DHT22;59358;52.134;5.596;2023-12-20T11:50:45;9.90;99.90
19206;DHT22;59358;52.134;5.596;2023-12-20T11:53:12;9.90;99.90
19206;DHT22;59358;52.134;5.596;2023-12-20T11:55:38;9.90;99.90
19206;DHT22;59358;52.134;5.596;2023-12-20T11:58:05;9.90;99.90
19206;DHT22;59358;52.134;5.596;2023-12-20T12:00:34;9.90;99.90
19206;DHT22;59358;52.134;5.596;2023-12-20T12:03:02;9.70;99.90
19206;DHT22;59358;52.134;5.596;2023-12-20T12:05:31;9.70;99.90
19206;DHT22;59358;52.134;5.596;2023-12-20T12:07:58;9.70;99.90
19206;DHT22;59358;52.134;5.596;2023-12-20T12:10:25;9.70;99.90
19206;DHT22;59358;52.134;5.596;2023-12-20T12:12:52;9.80;99.90
19206;DHT22;59358;52.134;5.596;2023-12-20T12:15:19;9.70;99.90
19206;DHT22;59358;52.134;5.596;2023-12-20T12:17:53;9.70;99.90
19206;DHT22;59358;52.134;5.596;2023-12-20T12:20:22;9.80;99.90
19206;DHT22;59358;52.134;5.596;2023-12-20T12:22:57;9.80;99.90
19206;DHT22;59358;52.134;5.596;2023-12-20T12:25:25;9.80;99.90
19206;DHT22;59358;52.134;5.596;2023-12-20T12:27:52;9.80;99.90
19206;DHT22;59358;52.134;5.596;2023-12-20T12:30:19;9.70;99.90
19206;DHT22;59358;52.134;5.596;2023-12-20T12:32:47;9.80;99.90
19206;DHT22;59358;52.134;5.596;2023-12-20T12:35:14;9.80;99.90
19206;DHT22;59358;52.134;5.596;2023-12-20T12:37:42;9.80;99.90
19206;DHT22;59358;52.134;5.596;2023-12-20T12:40:10;9.90;99.90
19206;DHT22;59358;52.134;5.596;2023-12-20T12:42:39;9.80;99.90
19206;DHT22;59358;52.134;5.596;2023-12-20T12:45:06;9.80;99.90
19206;DHT22;59358;52.134;5.596;2023-12-20T12:47:34;9.80;99.90
19206;DHT22;59358;52.134;5.596;2023-12-20T12:50:01;9.70;99.90
19206;DHT22;59358;52.134;5.596;2023-12-20T12:52:27;9.80;99.90
19206;DHT22;59358;52.134;5.596;2023-12-20T12:54:55;9.70;99.90
19206;DHT22;59358;52.134;5.596;2023-12-20T12:57:22;9.80;99.90
19206;DHT22;59358;52.134;5.596;2023-12-20T12:59:49;9.70;99.90
19206;DHT22;59358;52.134;5.596;2023-12-20T13:02:16;9.70;99.90
19206;DHT22;59358;52.134;5.596;2023-12-20T13:04:44;9.70;99.90
19206;DHT22;59358;52.134;5.596;2023-12-20T13:07:10;9.70;99.90
19206;DHT22;59358;52.134;5.596;2023-12-20T13:09:37;9.80;99.90
19206;DHT22;59358;52.134;5.596;2023-12-20T13:12:07;9.70;99.90
19206;DHT22;59358;52.134;5.596;2023-12-20T13:14:34;9.60;99.90
19206;DHT22;59358;52.134;5.596;2023-12-20T13:17:02;9.60;99.90
19206;DHT22;59358;52.134;5.596;2023-12-20T13:19:30;9.60;99.90
19206;DHT22;59358;52.134;5.596;2023-12-20T13:21:57;9.60;99.90
19206;DHT22;59358;52.134;5.596;2023-12-20T13:24:24;9.60;99.90
19206;DHT22;59358;52.134;5.596;2023-12-20T13:26:50;9.60;99.90
19206;DHT22;59358;52.134;5.596;2023-12-20T13:29:18;9.50;99.90
19206;DHT22;59358;52.134;5.596;2023-12-20T13:31:45;9.50;99.90
19206;DHT22;59358;52.134;5.596;2023-12-20T13:34:12;9.50;99.90
19206;DHT22;59358;52.134;5.596;2023-12-20T13:36:39;9.50;99.90
19206;DHT22;59358;52.134;5.596;2023-12-20T13:39:06;9.50;99.90
19206;DHT22;59358;52.134;5.596;2023-12-20T13:41:33;9.50;99.90
19206;DHT22;59358;52.134;5.596;2023-12-20T13:44:00;9.50;99.90
19206;DHT22;59358;52.134;5.596;2023-12-20T13:46:30;9.60;99.90
19206;DHT22;59358;52.134;5.596;2023-12-20T13:48:56;9.50;99.90
19206;DHT22;59358;52.134;5.596;2023-12-20T13:51:23;9.50;99.90
19206;DHT22;59358;52.134;5.596;2023-12-20T13:53:50;9.60;99.90
19206;DHT22;59358;52.134;5.596;2023-12-20T13:56:17;9.60;99.90
19206;DHT22;59358;52.134;5.596;2023-12-20T13:58:45;9.60;99.90
19206;DHT22;59358;52.134;5.596;2023-12-20T14:01:13;9.60;99.90
19206;DHT22;59358;52.134;5.596;2023-12-20T14:03:41;9.60;99.90
19206;DHT22;59358;52.134;5.596;2023-12-20T14:06:07;9.60;99.90
19206;DHT22;59358;52.134;5.596;2023-12-20T14:08:34;9.60;99.90
19206;DHT22;59358;52.134;5.596;2023-12-20T14:11:02;9.50;99.90
19206;DHT22;59358;52.134;5.596;2023-12-20T14:13:28;9.50;99.90
19206;DHT22;59358;52.134;5.596;2023-12-20T14:15:56;9.60;99.90
19206;DHT22;59358;52.134;5.596;2023-12-20T14:18:25;9.50;99.90
19206;DHT22;59358;52.134;5.596;2023-12-20T14:20:54;9.50;99.90
19206;DHT22;59358;52.134;5.596;2023-12-20T14:23:20;9.50;99.90
19206;DHT22;59358;52.134;5.596;2023-12-20T14:25:48;9.50;99.90
19206;DHT22;59358;52.134;5.596;2023-12-20T14:28:15;9.50;99.90
19206;DHT22;59358;52.134;5.596;2023-12-20T14:30:42;9.40;99.90
19206;DHT22;59358;52.134;5.596;2023-12-20T14:33:08;9.50;99.90
19206;DHT22;59358;52.134;5.596;2023-12-20T14:35:35;9.40;99.90
19206;DHT22;59358;52.134;5.596;2023-12-20T14:38:03;9.40;99.90
19206;DHT22;59358;52.134;5.596;2023-12-20T14:40:30;9.40;99.90
19206;DHT22;59358;52.134;5.596;2023-12-20T14:42:57;9.40;99.90
19206;DHT22;59358;52.134;5.596;2023-12-20T14:45:24;9.50;99.90
19206;DHT22;59358;52.134;5.596;2023-12-20T14:47:50;9.50;99.90
19206;DHT22;59358;52.134;5.596;2023-12-20T14:50:17;9.50;99.90
19206;DHT22;59358;52.134;5.596;2023-12-20T14:52:44;9.50;99.90
19206;DHT22;59358;52.134;5.596;2023-12-20T14:55:13;9.40;99.90
19206;DHT22;59358;52.134;5.596;2023-12-20T14:57:39;9.40;99.90
19206;DHT22;59358;52.134;5.596;2023-12-20T15:00:07;9.50;99.90
19206;DHT22;59358;52.134;5.596;2023-12-20T15:02:34;9.40;99.90
19206;DHT22;59358;52.134;5.596;2023-12-20T15:05:00;9.50;99.90
19206;DHT22;59358;52.134;5.596;2023-12-20T15:07:27;9.40;99.90
19206;DHT22;59358;52.134;5.596;2023-12-20T15:09:54;9.50;99.90
19206;DHT22;59358;52.134;5.596;2023-12-20T15:12:23;9.30;99.90
19206;DHT22;59358;52.134;5.596;2023-12-20T15:14:50;9.30;99.90
19206;DHT22;59358;52.134;5.596;2023-12-20T15:17:16;9.30;99.90
19206;DHT22;59358;52.134;5.596;2023-12-20T15:19:43;9.30;99.90
19206;DHT22;59358;52.134;5.596;2023-12-20T15:22:10;9.30;99.90
19206;DHT22;59358;52.134;5.596;2023-12-20T15:24:37;9.30;99.90
19206;DHT22;59358;52.134;5.596;2023-12-20T15:27:06;9.30;99.90
19206;DHT22;59358;52.134;5.596;2023-12-20T15:29:34;9.30;99.90
19206;DHT22;59358;52.134;5.596;2023-12-20T15:32:01;9.20;99.90
19206;DHT22;59358;52.134;5.596;2023-12-20T15:34:28;9.20;99.90
19206;DHT22;59358;52.134;5.596;2023-12-20T15:36:55;9.10;99.90
19206;DHT22;59358;52.134;5.596;2023-12-20T15:39:22;9.20;99.90
19206;DHT22;59358;52.134;5.596;2023-12-20T15:41:49;9.20;99.90
19206;DHT22;59358;52.134;5.596;2023-12-20T15:44:16;9.10;99.90
19206;DHT22;59358;52.134;5.596;2023-12-20T15:46:44;9.10;99.90